Time;durP1;ratioP1;P1;durP2;ratioP2;P2;SDS_P1;SDS_P2;PMS_P1;PMS_P2;Temp;Humidity;BMP_temperature;BMP_pressure;BME280_temperature;BME280_humidity;BME280_pressure;Samples;Min_cycle;Max_cycle;Signal;HPM_P1;HPM_P2
2021/07/29 00:01:53;;;;;;;3.58;2.85;;;;;;;17.42;76.41;99809.91;5051139;28;20447;-64
2021/07/29 00:04:19;;;;;;;7.07;2.97;;;;;;;17.30;76.89;99806.91;5050438;28;20072;-64
2021/07/29 00:06:45;;;;;;;4.28;2.95;;;;;;;17.19;77.50;99808.28;5050747;28;20392;-64
2021/07/29 00:09:13;;;;;;;3.60;2.72;;;;;;;17.31;77.03;99807.72;5051648;28;20072;-66
2021/07/29 00:11:39;;;;;;;4.03;2.97;;;;;;;17.13;77.88;99809.06;5049277;28;20453;-64
2021/07/29 00:14:06;;;;;;;4.32;2.53;;;;;;;17.15;77.73;99803.44;5050697;28;20045;-64
2021/07/29 00:16:40;;;;;;;5.57;2.45;;;;;;;17.22;77.17;99807.88;5050142;28;20103;-64
2021/07/29 00:19:08;;;;;;;4.53;2.40;;;;;;;16.94;78.52;99807.03;5050275;28;20126;-62
2021/07/29 00:21:35;;;;;;;4.07;2.80;;;;;;;16.92;78.96;99814.50;5050742;28;20385;-65
2021/07/29 00:24:02;;;;;;;4.00;2.72;;;;;;;16.78;79.26;99813.56;5051063;28;20044;-64
2021/07/29 00:26:30;;;;;;;3.55;2.67;;;;;;;17.06;78.39;99812.78;5050187;28;20049;-62
2021/07/29 00:28:57;;;;;;;4.18;2.35;;;;;;;17.00;78.14;99811.66;5043236;28;20048;-63
2021/07/29 00:31:29;;;;;;;4.68;2.55;;;;;;;16.82;78.96;99809.44;5050845;28;20261;-65
2021/07/29 00:33:56;;;;;;;3.45;2.30;;;;;;;16.74;79.42;99803.31;5027452;28;20324;-62
2021/07/29 00:36:23;;;;;;;6.70;2.50;;;;;;;16.62;79.75;99801.09;4984261;28;20258;-61
2021/07/29 00:38:49;;;;;;;3.65;2.60;;;;;;;16.66;79.58;99793.41;4996611;28;20431;-63
2021/07/29 00:41:16;;;;;;;4.13;2.05;;;;;;;16.55;79.95;99800.16;5046088;28;20119;-63
2021/07/29 00:43:45;;;;;;;6.05;2.80;;;;;;;16.88;78.87;99788.84;5041371;28;20565;-66
2021/07/29 00:46:14;;;;;;;6.30;2.90;;;;;;;16.52;80.63;99794.31;5050246;28;20131;-63
2021/07/29 00:48:41;;;;;;;5.35;2.53;;;;;;;16.30;81.39;99788.03;5049566;28;20497;-64
2021/07/29 00:51:07;;;;;;;4.43;2.50;;;;;;;16.19;81.81;99792.09;5049489;28;20068;-59
2021/07/29 00:53:34;;;;;;;7.28;2.85;;;;;;;16.15;81.91;99793.50;5048172;28;20094;-61
2021/07/29 00:56:01;;;;;;;4.30;2.92;;;;;;;16.00;83.04;99796.25;5048435;28;20053;-62
2021/07/29 00:58:27;;;;;;;4.72;2.97;;;;;;;15.86;83.28;99785.44;5048819;28;20155;-59
2021/07/29 01:00:55;;;;;;;3.75;2.70;;;;;;;16.02;82.71;99787.94;5050142;28;20053;-61
2021/07/29 01:03:21;;;;;;;5.03;2.92;;;;;;;15.90;83.46;99790.31;5050260;28;20076;-62
2021/07/29 01:05:47;;;;;;;6.28;3.03;;;;;;;15.89;83.48;99782.38;5045942;28;20522;-62
2021/07/29 01:08:13;;;;;;;5.47;3.75;;;;;;;16.00;83.19;99792.72;5044068;28;20041;-62
2021/07/29 01:10:40;;;;;;;6.13;3.22;;;;;;;15.88;83.46;99789.66;5050542;28;20469;-62
2021/07/29 01:13:06;;;;;;;4.63;2.80;;;;;;;15.84;83.49;99788.34;5050001;28;20471;-61
2021/07/29 01:15:32;;;;;;;5.40;3.47;;;;;;;15.90;83.41;99771.38;5049089;28;20103;-60
2021/07/29 01:18:01;;;;;;;7.85;3.08;;;;;;;15.94;83.32;99780.75;5049830;28;20506;-61
2021/07/29 01:20:29;;;;;;;5.90;3.22;;;;;;;15.99;82.97;99778.34;5049089;28;20082;-61
2021/07/29 01:22:56;;;;;;;5.85;3.55;;;;;;;15.95;83.39;99771.63;5049798;28;20114;-61
2021/07/29 01:25:22;;;;;;;5.47;3.20;;;;;;;16.01;82.90;99770.03;5050143;28;20068;-59
2021/07/29 01:27:48;;;;;;;4.60;2.80;;;;;;;16.11;82.29;99767.03;5048132;28;20057;-61
2021/07/29 01:30:15;;;;;;;4.63;3.03;;;;;;;16.23;81.69;99769.03;5049514;28;20053;-64
2021/07/29 01:32:42;;;;;;;4.72;3.13;;;;;;;16.04;82.67;99764.22;5049157;28;20052;-57
2021/07/29 01:35:09;;;;;;;4.47;2.65;;;;;;;15.94;82.96;99760.97;5048639;28;20053;-61
2021/07/29 01:37:38;;;;;;;4.88;3.28;;;;;;;15.86;83.52;99767.34;5049395;28;20146;-58
2021/07/29 01:40:06;;;;;;;4.28;2.90;;;;;;;15.79;83.84;99772.69;5049548;28;20049;-63
2021/07/29 01:42:32;;;;;;;4.93;2.85;;;;;;;15.70;84.28;99767.56;5043196;28;20049;-61
2021/07/29 01:44:58;;;;;;;8.98;3.25;;;;;;;15.79;83.54;99772.69;5040121;28;20053;-58
2021/07/29 01:47:25;;;;;;;5.85;3.20;;;;;;;15.76;83.91;99767.66;5044482;28;20059;-61
2021/07/29 01:49:51;;;;;;;4.32;2.75;;;;;;;15.82;83.53;99771.47;5048320;28;20109;-61
2021/07/29 01:52:17;;;;;;;5.00;2.97;;;;;;;15.96;82.77;99765.16;5048447;28;20487;-62
2021/07/29 01:54:45;;;;;;;4.13;2.75;;;;;;;15.85;83.35;99770.25;5049332;28;20106;-59
2021/07/29 01:57:11;;;;;;;5.43;3.20;;;;;;;15.87;83.25;99766.34;5047746;28;20049;-60
2021/07/29 01:59:38;;;;;;;6.00;2.75;;;;;;;15.68;84.03;99775.88;5047183;28;20114;-62
2021/07/29 02:02:05;;;;;;;4.55;3.10;;;;;;;15.52;84.73;99767.09;5048829;28;20045;-60
2021/07/29 02:04:31;;;;;;;4.47;3.47;;;;;;;15.47;84.94;99776.59;5049410;28;20057;-57
2021/07/29 02:06:58;;;;;;;5.63;2.95;;;;;;;15.33;85.49;99763.91;5048566;28;20057;-60
2021/07/29 02:09:24;;;;;;;5.18;3.33;;;;;;;15.30;85.67;99769.72;5048006;28;20041;-59
2021/07/29 02:11:52;;;;;;;6.20;3.33;;;;;;;15.29;85.61;99767.19;5048175;28;20533;-56
2021/07/29 02:14:19;;;;;;;4.65;2.97;;;;;;;15.16;86.32;99773.25;5047595;28;20040;-62
2021/07/29 02:16:45;;;;;;;6.97;3.10;;;;;;;15.06;86.77;99769.97;5041475;28;20499;-60
2021/07/29 02:19:12;;;;;;;5.13;3.60;;;;;;;15.04;86.99;99772.88;5048920;28;20073;-61
2021/07/29 02:21:38;;;;;;;8.70;3.53;;;;;;;14.99;86.70;99769.84;5047242;28;20588;-58
2021/07/29 02:24:05;;;;;;;4.15;3.13;;;;;;;14.90;87.09;99768.25;5047728;28;20041;-62
2021/07/29 02:26:31;;;;;;;7.32;3.65;;;;;;;14.86;87.32;99770.47;5049153;28;20102;-58
2021/07/29 02:28:59;;;;;;;5.70;3.42;;;;;;;14.83;87.54;99770.03;5046993;28;20048;-61
2021/07/29 02:31:25;;;;;;;4.95;3.30;;;;;;;14.86;87.44;99773.19;5034898;28;20527;-61
2021/07/29 02:33:52;;;;;;;4.82;3.40;;;;;;;14.88;87.11;99781.94;5043078;28;20098;-62
2021/07/29 02:36:18;;;;;;;4.75;3.17;;;;;;;14.83;87.34;99780.81;5048867;28;20045;-60
2021/07/29 02:38:44;;;;;;;5.00;2.95;;;;;;;14.81;87.52;99778.31;5047222;28;20126;-62
2021/07/29 02:41:11;;;;;;;5.32;2.83;;;;;;;14.81;87.26;99782.88;5048753;28;20075;-60
2021/07/29 02:43:37;;;;;;;4.88;3.35;;;;;;;14.84;87.23;99777.94;5046746;28;20045;-60
2021/07/29 02:46:04;;;;;;;5.50;3.55;;;;;;;14.82;87.17;99784.56;5043417;28;20048;-58
2021/07/29 02:48:31;;;;;;;4.55;2.67;;;;;;;15.06;85.65;99776.22;5048733;28;20045;-65
2021/07/29 02:50:57;;;;;;;4.03;2.78;;;;;;;15.06;85.90;99780.78;5048386;28;20069;-59
2021/07/29 02:53:25;;;;;;;7.40;3.00;;;;;;;15.02;85.84;99784.84;5049097;28;20107;-62
2021/07/29 02:55:57;;;;;;;4.75;2.80;;;;;;;15.00;85.80;99782.34;5047216;28;20497;-59
2021/07/29 02:58:23;;;;;;;5.30;2.58;;;;;;;15.06;85.54;99770.81;5048558;28;20494;-59
2021/07/29 03:00:49;;;;;;;6.18;3.25;;;;;;;15.05;85.46;99771.00;5048808;28;20064;-61
2021/07/29 03:03:17;;;;;;;7.65;3.05;;;;;;;14.97;85.81;99771.06;5047627;28;20081;-62
2021/07/29 03:05:43;;;;;;;8.32;3.78;;;;;;;14.86;86.40;99770.47;5047061;28;20069;-58
2021/07/29 03:08:10;;;;;;;4.65;2.47;;;;;;;14.82;86.53;99774.59;5048010;28;20065;-60
2021/07/29 03:10:36;;;;;;;6.43;3.03;;;;;;;14.80;86.32;99776.63;5047872;28;20053;-62
2021/07/29 03:13:04;;;;;;;5.55;3.50;;;;;;;14.72;86.99;99774.00;5047487;28;20056;-62
2021/07/29 03:15:30;;;;;;;5.80;3.13;;;;;;;14.65;87.29;99780.28;5048510;28;20037;-61
2021/07/29 03:17:57;;;;;;;4.13;2.85;;;;;;;14.59;87.40;99788.13;5046659;28;20063;-62
2021/07/29 03:20:24;;;;;;;8.15;3.67;;;;;;;14.57;87.53;99776.66;5048026;28;20041;-60
2021/07/29 03:22:51;;;;;;;4.38;3.40;;;;;;;14.57;87.85;99781.22;5047726;28;20045;-59
2021/07/29 03:25:17;;;;;;;4.82;3.10;;;;;;;14.62;87.26;99784.22;5048283;28;20556;-61
2021/07/29 03:27:43;;;;;;;5.18;3.33;;;;;;;14.73;86.62;99783.78;5045740;28;20049;-61
2021/07/29 03:30:10;;;;;;;5.18;3.17;;;;;;;14.72;86.55;99783.97;5048283;28;20107;-54
2021/07/29 03:32:37;;;;;;;4.95;3.10;;;;;;;14.75;86.57;99789.00;5051421;28;20088;-59
2021/07/29 03:35:03;;;;;;;5.93;3.22;;;;;;;14.70;86.84;99792.25;5050451;28;20106;-61
2021/07/29 03:37:31;;;;;;;7.55;2.75;;;;;;;14.70;86.86;99789.56;5049615;28;20380;-59
2021/07/29 03:40:03;;;;;;;4.70;2.80;;;;;;;14.77;86.58;99795.03;5046224;28;20048;-62
2021/07/29 03:42:30;;;;;;;5.20;2.88;;;;;;;14.78;86.27;99794.03;5050057;28;20045;-61
2021/07/29 03:44:56;;;;;;;4.32;2.72;;;;;;;14.80;86.23;99792.84;5040595;28;20094;-59
2021/07/29 03:47:22;;;;;;;6.28;3.25;;;;;;;14.94;85.54;99798.47;5051503;28;20072;-61
2021/07/29 03:49:49;;;;;;;4.22;2.60;;;;;;;15.16;84.18;99798.41;5050698;28;20494;-64
2021/07/29 03:52:15;;;;;;;6.13;3.40;;;;;;;15.21;83.82;99797.84;5051417;28;20083;-59
2021/07/29 03:54:43;;;;;;;5.38;2.90;;;;;;;15.25;83.59;99804.56;5051725;28;20053;-60
2021/07/29 03:57:10;;;;;;;4.65;2.85;;;;;;;15.17;84.15;99804.66;5051338;28;20502;-59
2021/07/29 03:59:36;;;;;;;5.00;3.17;;;;;;;15.17;84.17;99804.66;5049393;28;20053;-60
2021/07/29 04:02:09;;;;;;;4.82;3.13;;;;;;;15.27;83.53;99809.78;5051032;28;20517;-60
2021/07/29 04:04:35;;;;;;;6.53;3.20;;;;;;;15.26;83.75;99798.13;5042679;28;20103;-61
2021/07/29 04:07:01;;;;;;;4.07;2.95;;;;;;;15.24;83.80;99808.28;5037971;28;20491;-60
2021/07/29 04:09:28;;;;;;;5.18;2.75;;;;;;;15.32;83.43;99810.06;5044841;28;20052;-62
2021/07/29 04:11:55;;;;;;;4.70;2.90;;;;;;;15.22;84.19;99813.03;5049022;28;20045;-61
2021/07/29 04:14:22;;;;;;;6.53;3.50;;;;;;;15.24;83.79;99810.16;5051007;28;20045;-62
2021/07/29 04:16:48;;;;;;;5.10;2.63;;;;;;;15.25;83.69;99818.06;5049932;28;20053;-62
2021/07/29 04:19:14;;;;;;;5.45;3.28;;;;;;;15.18;84.02;99817.16;5050031;28;20080;-60
2021/07/29 04:21:41;;;;;;;3.67;2.70;;;;;;;15.15;84.28;99821.06;5050900;28;20130;-61
2021/07/29 04:24:07;;;;;;;8.38;3.70;;;;;;;15.16;84.29;99824.59;5051281;28;20122;-62
2021/07/29 04:26:33;;;;;;;6.53;3.40;;;;;;;15.25;84.05;99831.59;5051007;28;20091;-59
2021/07/29 04:29:01;;;;;;;5.65;3.17;;;;;;;15.33;83.75;99822.56;5049900;28;20652;-61
2021/07/29 04:31:27;;;;;;;5.13;3.13;;;;;;;15.31;84.02;99830.03;5050679;28;20469;-61
2021/07/29 04:33:54;;;;;;;6.38;3.47;;;;;;;15.39;83.58;99829.91;5048939;28;20576;-60
2021/07/29 04:36:20;;;;;;;7.45;3.42;;;;;;;15.42;83.47;99832.28;5046064;28;20040;-60
2021/07/29 04:38:46;;;;;;;7.38;3.42;;;;;;;15.52;83.07;99834.72;5050212;28;20053;-60
2021/07/29 04:41:12;;;;;;;4.80;2.70;;;;;;;15.69;82.79;99830.81;5050679;28;20530;-61
2021/07/29 04:43:39;;;;;;;5.30;3.22;;;;;;;15.93;81.04;99829.69;5048709;28;20076;-60
2021/07/29 04:46:06;;;;;;;6.30;2.92;;;;;;;16.12;80.80;99830.97;5048928;28;20069;-61
2021/07/29 04:48:34;;;;;;;4.63;2.88;;;;;;;16.35;79.03;99823.53;5049524;28;20115;-61
2021/07/29 04:51:01;;;;;;;6.25;2.88;;;;;;;16.45;79.01;99821.31;5050711;28;20045;-60
2021/07/29 04:53:28;;;;;;;4.40;3.20;;;;;;;16.71;77.67;99825.38;5048881;28;20079;-60
2021/07/29 04:55:54;;;;;;;5.70;2.55;;;;;;;16.87;77.18;99831.38;5044164;28;20465;-60
2021/07/29 04:58:20;;;;;;;5.47;2.72;;;;;;;17.20;74.35;99825.38;5047318;28;20044;-60
2021/07/29 05:00:46;;;;;;;5.18;2.75;;;;;;;17.23;74.67;99825.81;5048742;28;20409;-59
2021/07/29 05:03:14;;;;;;;9.18;3.00;;;;;;;17.07;75.10;99828.84;5047681;28;20075;-63
2021/07/29 05:05:40;;;;;;;4.82;2.97;;;;;;;16.95;76.34;99828.53;5049914;28;20099;-61
2021/07/29 05:08:07;;;;;;;5.22;2.70;;;;;;;16.83;77.11;99826.53;5042429;28;20462;-61
2021/07/29 05:10:33;;;;;;;5.93;3.15;;;;;;;16.96;75.93;99818.53;5050360;28;20495;-60
2021/07/29 05:12:59;;;;;;;6.00;2.60;;;;;;;16.90;76.60;99824.72;5051523;28;20114;-61
2021/07/29 05:15:26;;;;;;;7.05;3.30;;;;;;;17.05;75.11;99811.94;5050855;28;20480;-62
2021/07/29 05:17:55;;;;;;;5.97;2.90;;;;;;;16.97;76.19;99809.34;5043511;28;20080;-61
2021/07/29 05:20:24;;;;;;;5.95;3.22;;;;;;;17.06;75.42;99813.59;5051862;28;20053;-62
2021/07/29 05:22:50;;;;;;;6.30;2.50;;;;;;;17.08;75.34;99813.41;5051829;28;20427;-60
2021/07/29 05:25:22;;;;;;;4.60;2.53;;;;;;;17.10;75.14;99801.31;5035782;28;20454;-61
2021/07/29 05:27:49;;;;;;;5.38;3.17;;;;;;;17.28;74.61;99808.94;5031969;28;20045;-62
2021/07/29 05:30:15;;;;;;;4.68;2.33;;;;;;;17.40;74.59;99784.81;5047014;28;20103;-62
2021/07/29 05:32:41;;;;;;;5.10;2.88;;;;;;;17.42;74.50;99783.59;5036744;28;20455;-62
2021/07/29 05:35:09;;;;;;;6.20;2.83;;;;;;;17.38;73.63;99776.03;5037428;28;20061;-61
2021/07/29 05:37:36;;;;;;;7.82;2.88;;;;;;;17.66;72.67;99782.28;5042868;28;20127;-61
2021/07/29 05:40:03;;;;;;;3.35;2.30;;;;;;;17.64;72.15;99789.78;5034972;28;20045;-61
2021/07/29 05:42:30;;;;;;;3.63;2.55;;;;;;;17.78;72.47;99786.13;5038805;28;20050;-61
2021/07/29 05:44:56;;;;;;;4.82;2.50;;;;;;;17.83;72.56;99799.91;5049731;28;20128;-62
2021/07/29 05:47:22;;;;;;;5.13;2.60;;;;;;;17.93;72.04;99804.13;5037371;28;20050;-59
2021/07/29 05:49:49;;;;;;;4.95;2.38;;;;;;;18.08;70.71;99813.81;5031740;28;20080;-62
2021/07/29 05:52:15;;;;;;;3.35;2.20;;;;;;;18.13;70.34;99810.50;5050030;28;20052;-60
2021/07/29 05:54:43;;;;;;;4.35;2.25;;;;;;;18.16;69.88;99815.50;5050192;28;20041;-62
2021/07/29 05:57:09;;;;;;;4.82;2.58;;;;;;;18.31;68.43;99812.63;5051280;28;20118;-62
2021/07/29 05:59:35;;;;;;;3.10;2.10;;;;;;;18.35;69.34;99814.75;5047604;28;20089;-61
2021/07/29 06:02:02;;;;;;;3.17;2.10;;;;;;;18.57;68.72;99815.41;5031001;28;20057;-61
2021/07/29 06:04:28;;;;;;;5.50;2.45;;;;;;;18.55;68.48;99809.34;5031496;28;20053;-60
2021/07/29 06:06:55;;;;;;;3.88;2.08;;;;;;;18.72;68.33;99814.44;5031224;28;20068;-62
2021/07/29 06:09:21;;;;;;;4.40;2.63;;;;;;;18.78;67.01;99808.97;5031191;28;20046;-63
2021/07/29 06:11:49;;;;;;;4.95;2.35;;;;;;;18.80;67.26;99820.47;5032104;28;20948;-63
2021/07/29 06:14:15;;;;;;;4.15;2.63;;;;;;;18.95;66.20;99810.25;5046720;28;20049;-63
2021/07/29 06:16:41;;;;;;;6.80;2.90;;;;;;;18.91;66.33;99797.28;5045201;28;20053;-61
2021/07/29 06:19:09;;;;;;;5.85;2.00;;;;;;;18.88;66.71;99798.53;5051369;28;20052;-62
2021/07/29 06:21:37;;;;;;;12.48;3.85;;;;;;;19.07;66.44;99798.75;5051654;28;20068;-59
2021/07/29 06:24:03;;;;;;;5.65;2.53;;;;;;;19.12;65.65;99794.34;5050299;28;20049;-59
2021/07/29 06:26:30;;;;;;;5.78;2.60;;;;;;;19.07;65.54;99796.03;5051200;28;20106;-61
2021/07/29 06:28:58;;;;;;;3.83;1.85;;;;;;;19.44;63.50;99800.81;5051123;28;20048;-59
2021/07/29 06:31:24;;;;;;;7.57;2.80;;;;;;;19.44;64.16;99810.84;5050448;28;20053;-58
2021/07/29 06:33:50;;;;;;;4.97;2.20;;;;;;;19.53;63.45;99807.69;5042172;28;20045;-59
2021/07/29 06:36:17;;;;;;;5.78;2.38;;;;;;;19.37;63.52;99793.69;5050835;28;20099;-61
2021/07/29 06:38:43;;;;;;;4.18;2.40;;;;;;;19.43;62.93;99790.97;5050093;28;20095;-60
2021/07/29 06:41:10;;;;;;;4.45;2.10;;;;;;;19.71;63.07;99803.47;5051097;28;20080;-60
2021/07/29 06:43:37;;;;;;;3.90;2.05;;;;;;;19.98;62.38;99794.16;5050909;28;20067;-60
2021/07/29 06:46:05;;;;;;;4.45;2.30;;;;;;;20.08;61.92;99799.97;5050523;28;20426;-62
2021/07/29 06:48:31;;;;;;;5.97;2.35;;;;;;;20.06;61.19;99801.25;5042424;28;20087;-59
2021/07/29 06:51:01;;;;;;;5.72;2.28;;;;;;;20.23;60.90;99796.13;5031776;28;20050;-60
2021/07/29 06:53:28;;;;;;;4.18;3.00;;;;;;;20.07;60.58;99800.19;5030528;28;20057;-60
2021/07/29 06:55:54;;;;;;;3.55;1.90;;;;;;;20.08;60.38;99794.53;5030980;28;20131;-59
2021/07/29 06:58:21;;;;;;;4.72;2.38;;;;;;;19.85;60.93;99805.94;5030989;28;20049;-62
2021/07/29 07:00:48;;;;;;;4.50;2.20;;;;;;;20.25;60.55;99808.50;5030420;28;20499;-60
2021/07/29 07:03:15;;;;;;;4.95;2.28;;;;;;;20.52;59.00;99806.50;5035802;28;20099;-61
2021/07/29 07:05:45;;;;;;;5.72;2.22;;;;;;;20.78;58.05;99805.47;5038376;28;20457;-60
2021/07/29 07:08:11;;;;;;;4.15;2.42;;;;;;;20.96;57.41;99797.38;5052091;28;20053;-61
2021/07/29 07:10:38;;;;;;;4.90;1.92;;;;;;;20.80;58.08;99797.91;5035148;28;20570;-64
2021/07/29 07:13:04;;;;;;;5.22;2.25;;;;;;;20.55;60.32;99806.06;5035234;28;20050;-60
2021/07/29 07:15:31;;;;;;;4.10;2.40;;;;;;;20.32;58.58;99798.41;5044525;28;20068;-60
2021/07/29 07:17:57;;;;;;;4.70;2.58;;;;;;;20.11;60.46;99793.25;5034900;28;20502;-62
2021/07/29 07:20:25;;;;;;;5.85;2.58;;;;;;;20.12;60.27;99795.75;5033859;28;20069;-61
2021/07/29 07:22:52;;;;;;;3.70;2.25;;;;;;;20.59;59.62;99790.91;5050063;28;20053;-61
2021/07/29 07:25:19;;;;;;;5.43;2.22;;;;;;;20.53;57.64;99789.09;5054608;28;20123;-61
2021/07/29 07:27:45;;;;;;;3.22;2.08;;;;;;;20.55;55.96;99778.78;5054217;28;20045;-61
2021/07/29 07:30:12;;;;;;;4.15;2.15;;;;;;;20.92;55.82;99785.22;5054377;28;20186;-63
2021/07/29 07:32:39;;;;;;;3.30;1.95;;;;;;;21.18;55.21;99783.31;5053377;28;20210;-60
2021/07/29 07:35:06;;;;;;;4.45;2.25;;;;;;;21.60;54.84;99787.97;5054292;28;20523;-62
2021/07/29 07:37:33;;;;;;;5.78;2.28;;;;;;;21.85;52.77;99782.41;5054119;28;20057;-61
2021/07/29 07:39:59;;;;;;;6.93;2.05;;;;;;;21.36;55.51;99785.28;5053425;28;20457;-61
2021/07/29 07:42:26;;;;;;;3.50;2.45;;;;;;;21.25;55.11;99784.09;5053718;28;20107;-60
2021/07/29 07:44:54;;;;;;;4.22;2.20;;;;;;;21.34;54.37;99787.41;5054028;28;20048;-61
2021/07/29 07:47:21;;;;;;;4.63;2.05;;;;;;;21.14;54.98;99780.19;5053060;28;20045;-61
2021/07/29 07:49:47;;;;;;;5.05;2.00;;;;;;;21.07;55.94;99778.56;5045755;28;20049;-61
2021/07/29 07:52:13;;;;;;;5.13;2.05;;;;;;;20.86;55.53;99788.84;5045224;28;20080;-61
2021/07/29 07:54:41;;;;;;;3.90;2.30;;;;;;;21.10;55.21;99783.63;5037007;28;20053;-60
2021/07/29 07:57:08;;;;;;;4.32;2.25;;;;;;;21.01;56.86;99788.50;5033900;28;20049;-61
2021/07/29 07:59:35;;;;;;;9.82;2.75;;;;;;;21.25;55.96;99784.97;5033435;28;20054;-61
2021/07/29 08:02:01;;;;;;;5.75;2.53;;;;;;;21.41;56.77;99782.69;5035190;28;20147;-61
2021/07/29 08:04:28;;;;;;;8.38;2.50;;;;;;;21.75;54.89;99784.84;5053484;28;20122;-62
2021/07/29 08:06:55;;;;;;;6.65;2.22;;;;;;;22.20;52.51;99780.97;5053802;28;20041;-61
2021/07/29 08:09:21;;;;;;;5.20;2.03;;;;;;;22.50;49.60;99776.31;5053105;28;20099;-60
2021/07/29 08:11:48;;;;;;;2.65;1.60;;;;;;;22.65;50.59;99773.16;5051537;28;20099;-60
2021/07/29 08:14:15;;;;;;;7.15;1.73;;;;;;;22.62;49.64;99787.31;5050667;28;20071;-61
2021/07/29 08:16:41;;;;;;;6.25;2.10;;;;;;;21.55;52.84;99762.41;5052206;28;20505;-59
2021/07/29 08:19:08;;;;;;;4.68;2.35;;;;;;;21.30;51.79;99771.47;5053486;28;20237;-61
2021/07/29 08:21:34;;;;;;;5.03;2.30;;;;;;;20.66;53.15;99775.34;5052881;28;20099;-62
2021/07/29 08:24:01;;;;;;;5.00;1.90;;;;;;;20.66;54.66;99785.44;5053149;28;20044;-61
2021/07/29 08:26:27;;;;;;;3.97;1.90;;;;;;;21.15;52.46;99770.13;5052970;28;20045;-61
2021/07/29 08:28:57;;;;;;;4.88;2.50;;;;;;;21.61;49.71;99766.94;5051216;28;20511;-62
2021/07/29 08:31:23;;;;;;;5.07;2.08;;;;;;;21.77;49.11;99769.06;5049914;28;20074;-61
2021/07/29 08:33:50;;;;;;;4.57;2.00;;;;;;;21.87;49.99;99765.78;5049849;28;20076;-59
2021/07/29 08:36:18;;;;;;;2.97;1.90;;;;;;;22.02;49.18;99766.25;5051185;28;20036;-60
2021/07/29 08:38:45;;;;;;;4.32;1.95;;;;;;;22.07;50.61;99762.84;5049144;28;20064;-62
2021/07/29 08:41:15;;;;;;;3.90;1.90;;;;;;;22.40;47.63;99740.50;5049498;28;20056;-62
2021/07/29 08:43:41;;;;;;;8.63;2.30;;;;;;;22.53;47.73;99748.50;5050858;28;20049;-59
2021/07/29 08:46:10;;;;;;;6.63;2.33;;;;;;;22.43;47.66;99738.13;5046324;28;20049;-60
2021/07/29 08:48:43;;;;;;;4.07;2.38;;;;;;;22.59;47.03;99758.50;5048466;28;20131;-60
2021/07/29 08:51:10;;;;;;;5.15;2.55;;;;;;;22.75;47.29;99763.31;5048291;28;20053;-63
2021/07/29 08:53:37;;;;;;;5.60;2.20;;;;;;;22.79;45.56;99757.34;5048646;28;20056;-59
2021/07/29 08:56:03;;;;;;;4.35;2.30;;;;;;;22.69;46.75;99750.56;5049028;28;20068;-63
2021/07/29 08:58:30;;;;;;;4.25;1.92;;;;;;;22.78;47.01;99745.59;5049279;28;20053;-59
2021/07/29 09:01:00;;;;;;;6.20;2.25;;;;;;;22.48;47.75;99762.88;5049785;28;20075;-61
2021/07/29 09:03:28;;;;;;;6.28;2.08;;;;;;;22.16;46.77;99758.72;5049791;28;20388;-62
2021/07/29 09:06:03;;;;;;;4.25;1.90;;;;;;;22.55;45.91;99746.38;5049802;28;20075;-62
2021/07/29 09:08:41;;;;;;;3.38;2.17;;;;;;;22.53;46.54;99755.88;5048597;28;20049;-61
2021/07/29 09:11:25;;;;;;;3.55;2.17;;;;;;;22.79;47.51;99746.41;5050070;28;20573;-59
2021/07/29 09:14:03;;;;;;;4.82;2.20;;;;;;;23.27;46.58;99752.53;5046243;28;20053;-62
2021/07/29 09:16:33;;;;;;;6.82;2.15;;;;;;;23.73;46.73;99747.25;5048496;28;20037;-58
2021/07/29 09:19:01;;;;;;;5.38;2.25;;;;;;;23.78;46.16;99744.63;5043747;28;20462;-59
2021/07/29 09:21:28;;;;;;;5.43;2.00;;;;;;;23.11;45.47;99760.63;5048690;28;20055;-60
2021/07/29 09:24:04;;;;;;;4.03;2.22;;;;;;;22.78;45.86;99751.06;5044374;28;20041;-60
2021/07/29 09:26:55;;;;;;;5.20;2.40;;;;;;;23.07;47.37;99753.97;5040522;28;20304;-60
2021/07/29 09:29:23;;;;;;;4.97;2.33;;;;;;;23.27;47.53;99765.38;5049408;28;20075;-62
2021/07/29 09:32:03;;;;;;;4.25;2.00;;;;;;;23.15;46.20;99761.81;5049452;28;20419;-59
2021/07/29 09:34:41;;;;;;;10.38;2.45;;;;;;;23.15;46.93;99761.81;5049747;28;20080;-59
2021/07/29 09:37:07;;;;;;;4.72;1.80;;;;;;;23.32;45.44;99760.03;5047000;28;20041;-60
2021/07/29 09:39:34;;;;;;;7.10;2.20;;;;;;;23.42;47.17;99754.78;5048918;28;20533;-61
2021/07/29 09:42:15;;;;;;;6.45;2.33;;;;;;;23.26;45.12;99766.47;5050053;28;20049;-61
2021/07/29 09:44:43;;;;;;;6.18;2.42;;;;;;;23.12;46.16;99751.34;5048844;28;20053;-60
2021/07/29 09:47:10;;;;;;;4.85;2.30;;;;;;;23.13;46.18;99764.81;5043588;28;20040;-62
2021/07/29 09:49:39;;;;;;;5.50;2.30;;;;;;;23.14;47.48;99758.25;5040605;28;20049;-62
2021/07/29 09:52:07;;;;;;;4.20;2.10;;;;;;;23.03;45.62;99770.84;5047933;28;20110;-61
2021/07/29 09:54:35;;;;;;;3.67;2.00;;;;;;;22.74;46.82;99782.69;5049602;28;20434;-61
2021/07/29 09:57:02;;;;;;;7.22;2.13;;;;;;;22.67;46.35;99776.47;5048651;28;20049;-61
2021/07/29 09:59:29;;;;;;;4.22;2.13;;;;;;;22.09;48.27;99788.88;5049061;28;20041;-60
2021/07/29 10:01:55;;;;;;;3.75;2.50;;;;;;;21.81;48.35;99792.13;5047724;28;20045;-59
2021/07/29 10:04:28;;;;;;;6.90;2.55;;;;;;;21.34;50.21;99787.41;5048781;28;20052;-62
2021/07/29 10:06:58;;;;;;;6.13;1.88;;;;;;;21.53;51.57;99797.28;5049581;28;20468;-61
2021/07/29 10:09:27;;;;;;;3.55;2.20;;;;;;;21.41;49.99;99789.00;5048608;28;20079;-60
2021/07/29 10:11:58;;;;;;;4.97;2.63;;;;;;;21.46;48.88;99796.53;5047812;28;20049;-59
2021/07/29 10:14:50;;;;;;;6.53;2.53;;;;;;;21.53;50.40;99802.72;5047264;28;20552;-61
2021/07/29 10:17:17;;;;;;;3.95;2.30;;;;;;;21.46;49.88;99791.91;5042507;28;20068;-61
2021/07/29 10:20:15;;;;;;;8.07;3.58;;;;;;;21.56;50.70;99794.09;5048835;28;20541;-59
2021/07/29 10:22:44;;;;;;;8.85;2.60;;;;;;;22.06;49.42;99780.31;5044497;28;20064;-62
2021/07/29 10:25:11;;;;;;;4.78;2.40;;;;;;;22.00;48.73;99786.63;5047737;28;20703;-61
2021/07/29 10:27:37;;;;;;;5.35;2.20;;;;;;;22.19;49.03;99796.53;5047656;28;20084;-62
2021/07/29 10:30:36;;;;;;;4.72;2.58;;;;;;;22.38;48.60;99794.59;5047252;28;20072;-61
2021/07/29 10:33:17;;;;;;;5.70;2.17;;;;;;;22.92;47.93;99785.34;5048695;28;20417;-61
2021/07/29 10:35:43;;;;;;;8.15;2.15;;;;;;;22.85;46.77;99784.66;5048205;28;20067;-62
2021/07/29 10:38:11;;;;;;;8.02;3.28;;;;;;;22.86;46.61;99782.75;5047976;28;20095;-62
2021/07/29 10:40:39;;;;;;;3.72;2.05;;;;;;;22.75;45.41;99784.34;5043970;28;20045;-59
2021/07/29 10:43:39;;;;;;;4.10;2.30;;;;;;;22.37;46.02;99788.25;5051474;28;20139;-63
2021/07/29 10:46:05;;;;;;;3.63;1.77;;;;;;;21.97;45.11;99776.19;5042896;28;20136;-60
2021/07/29 10:51:34;;;;;;;2.35;1.50;;;;;;;22.87;40.44;99759.78;5050114;28;20522;-58
2021/07/29 10:54:02;;;;;;;4.18;2.13;;;;;;;23.15;40.94;99761.81;5051991;28;20118;-58
2021/07/29 10:56:29;;;;;;;2.78;1.50;;;;;;;23.29;41.43;99764.06;5052638;28;20049;-61
2021/07/29 10:58:56;;;;;;;3.72;1.58;;;;;;;23.15;40.38;99754.44;5049311;28;20088;-58
2021/07/29 11:01:47;;;;;;;4.30;2.05;;;;;;;22.86;41.39;99755.38;5052429;28;20045;-60
2021/07/29 11:04:14;;;;;;;4.10;1.88;;;;;;;23.03;40.88;99751.69;5047737;28;20468;-62
2021/07/29 11:06:43;;;;;;;3.80;1.75;;;;;;;23.15;44.11;99753.59;5051320;28;20045;-61
2021/07/29 11:09:10;;;;;;;6.50;2.20;;;;;;;23.55;42.56;99745.47;5052521;28;20136;-61
2021/07/29 11:11:37;;;;;;;3.78;1.75;;;;;;;23.92;40.92;99741.38;5052145;28;20087;-64
2021/07/29 11:14:03;;;;;;;5.47;1.50;;;;;;;23.74;41.77;99740.72;5051093;28;20057;-60
2021/07/29 11:16:30;;;;;;;6.20;1.92;;;;;;;23.57;40.60;99738.69;5052535;28;20044;-61
2021/07/29 11:19:02;;;;;;;2.70;1.60;;;;;;;23.81;42.41;99753.22;5052530;28;20106;-61
2021/07/29 11:21:29;;;;;;;6.22;2.10;;;;;;;23.85;40.15;99746.16;5051060;28;20044;-60
2021/07/29 11:23:55;;;;;;;3.33;1.90;;;;;;;23.71;40.51;99752.16;5051867;28;20106;-62
2021/07/29 11:26:22;;;;;;;4.43;2.33;;;;;;;23.95;39.66;99745.53;5052500;28;20095;-62
2021/07/29 11:29:07;;;;;;;3.90;1.65;;;;;;;23.77;40.62;99756.66;5051520;28;20057;-62
2021/07/29 11:31:33;;;;;;;4.50;2.20;;;;;;;24.00;40.87;99751.09;5045570;28;20103;-61
2021/07/29 11:34:01;;;;;;;3.15;1.70;;;;;;;23.76;42.29;99752.25;5051625;28;20045;-61
2021/07/29 11:36:29;;;;;;;6.85;2.47;;;;;;;24.08;42.48;99750.72;5050508;28;20652;-59
2021/07/29 11:38:57;;;;;;;3.30;1.58;;;;;;;24.12;38.59;99748.31;5047821;28;20059;-60
2021/07/29 11:41:24;;;;;;;3.75;1.80;;;;;;;23.77;38.46;99745.69;5050590;28;20499;-60